Plaia De Rueta — EAAA — position and weather

sailwx.info

Track history (hours):
 
Tides and Currents Weather Stations Pressure Air Temp Water Temp Dewpoint Dewpoint Depression Visibility Wind Speed Wind Dir Waves Ship Positions

Plaia De Rueta

Last reported at 2018-May-24 09:00 UTC. Time now 2018-May-24 14:08 UTC.
Position N 43°33' W 005°42'.

Length 32 m; draft 6 m.

Type: Fishing. MMSI: 224100180.

Date/timePositionNaut miles runAvg speedWind from/ knotsBaromVisibWave heightAir tempDewpointWater temp
2018-May-24 09:00N 43°33' W 005°42'0 0.0
2018-May-24 08:30N 43°33' W 005°42'0 0.0
2018-May-24 08:00N 43°33' W 005°42'0 0.0
2018-May-24 07:30N 43°33' W 005°42'0 0.0
2018-May-24 06:58N 43°33' W 005°42'0 0.0
2018-May-24 06:30N 43°33' W 005°42'0 0.0
2018-May-24 06:00N 43°33' W 005°42'0 0.0
2018-May-24 05:30N 43°33' W 005°42'0 0.0
2018-May-24 05:00N 43°33' W 005°42'0 0.0
2018-May-24 04:29N 43°33' W 005°42'0 0.0
2018-May-24 04:00N 43°33' W 005°42'0 0.0
2018-May-24 03:29N 43°33' W 005°42'0 0.0
2018-May-24 03:00N 43°33' W 005°42'0 0.0
2018-May-24 02:30N 43°33' W 005°42'0 0.0
2018-May-24 02:00N 43°33' W 005°42'0 0.0
2018-May-24 01:30N 43°33' W 005°42'0 0.0
2018-May-24 01:00N 43°33' W 005°42'0 0.0
2018-May-23 20:19N 43°33' W 005°42'0 0.0
2018-May-23 19:57N 43°33' W 005°42'0 0.0
2018-May-23 19:29N 43°33' W 005°42'0 0.0
2018-May-23 19:00N 43°33' W 005°42'0 0.0
2018-May-23 18:30N 43°33' W 005°42'0 0.0
2018-May-23 18:00N 43°33' W 005°42'0 0.0
2018-May-23 17:30N 43°33' W 005°42'0 0.0
2018-May-23 17:00N 43°33' W 005°42'0 0.0
2018-May-23 16:29N 43°33' W 005°42'9 1.6
2018-May-23 10:31N 43°42' W 005°46'0 3.1
2018-May-23 10:30N 43°42' W 005°46'3 3.3
2018-May-23 09:38N 43°41' W 005°42'1 3.3
2018-May-23 09:28N 43°41' W 005°42'1 1.8
2018-May-23 08:59N 43°40' W 005°41'1 1.7
2018-May-23 08:29N 43°41' W 005°42'4 3.5
2018-May-23 07:25N 43°42' W 005°46'3 3.6
2018-May-23 06:43N 43°42' W 005°50'1 3.8
2018-May-23 06:26N 43°42' W 005°51'5 5.7
2018-May-23 05:35N 43°42' W 005°58'2 9.8
2018-May-23 05:25N 43°43' W 006°00'12 0.5
2018-May-22 04:21N 43°55' W 005°56'15 1.9
2018-May-21 20:28N 43°44' W 005°43'2 3.1
2018-May-21 19:58N 43°42' W 005°42'2 3.2
2018-May-21 19:29N 43°41' W 005°41'2 3.5
2018-May-21 18:58N 43°40' W 005°38'2 3.8
2018-May-21 18:23N 43°40' W 005°35'4 8.1
2018-May-21 17:57N 43°37' W 005°38'4 9.6
2018-May-21 17:30N 43°33' W 005°42'0 0.3
2018-May-21 17:00N 43°33' W 005°42'0 0.4
2018-May-21 16:30N 43°33' W 005°41'4 7.3
2018-May-21 16:00N 43°37' W 005°41'4 8.2
2018-May-21 15:27N 43°41' W 005°42'4 0.8
2018-May-21 10:08N 43°42' W 005°48'0 3.3
2018-May-21 09:59N 43°42' W 005°48'2 3.3
2018-May-21 09:26N 43°42' W 005°45'2 3.3
2018-May-21 08:58N 43°41' W 005°43'2 3.3
2018-May-21 08:28N 43°41' W 005°41'2 3.7
2018-May-21 08:00N 43°40' W 005°39'2 5.0
2018-May-21 07:30N 43°41' W 005°42'1 2.1
2018-May-21 06:55N 43°41' W 005°44'2 3.9
2018-May-21 06:20N 43°42' W 005°46'1 3.9
2018-May-21 05:58N 43°43' W 005°48'2 3.9
2018-May-21 05:26N 43°42' W 005°51'1 1.0
2018-May-21 03:58N 43°42' W 005°53'2 3.3
2018-May-21 03:30N 43°42' W 005°51'2 3.1
2018-May-21 02:54N 43°42' W 005°48'1 3.3
2018-May-21 02:30N 43°42' W 005°47'2 3.3
2018-May-21 02:00N 43°41' W 005°45'2 3.3
2018-May-21 01:30N 43°41' W 005°42'2 3.2
2018-May-21 00:54N 43°40' W 005°40'  
2018-May-18 12:44N 43°40' W 005°41'1 2.8
2018-May-18 12:29N 43°41' W 005°41'1 2.0
2018-May-18 11:57N 43°42' W 005°41'2 3.2
2018-May-18 11:27N 43°43' W 005°42'3 2.2
2018-May-18 10:03N 43°46' W 005°44'0 3.0
2018-May-18 09:55N 43°46' W 005°44'1 3.1
2018-May-18 09:27N 43°44' W 005°43'2 3.2
2018-May-18 08:56N 43°43' W 005°42'3 3.6
2018-May-18 08:04N 43°40' W 005°40'0 2.7
2018-May-18 07:57N 43°41' W 005°40'2 3.8
2018-May-18 07:28N 43°41' W 005°43'2 3.6
2018-May-18 06:58N 43°42' W 005°45'2 3.7
2018-May-18 06:28N 43°42' W 005°47'2 3.6
2018-May-18 05:58N 43°43' W 005°50'2 3.3
2018-May-18 05:30N 43°43' W 005°52'1 1.5
2018-May-18 04:40N 43°42' W 005°54'1 3.2
2018-May-18 04:28N 43°43' W 005°53'2 3.3
2018-May-18 03:56N 43°43' W 005°50'1 3.3
2018-May-18 03:30N 43°43' W 005°48'2 3.3
2018-May-18 02:59N 43°42' W 005°46'2 3.2
2018-May-18 02:30N 43°42' W 005°44'2 3.4
2018-May-18 02:00N 43°41' W 005°42'2 3.4
2018-May-18 01:29N 43°41' W 005°40'2 4.0
2018-May-18 00:57N 43°40' W 005°37'2 4.9
2018-May-18 00:30N 43°41' W 005°34'1 1.4
2018-May-18 00:00N 43°40' W 005°33'2 3.1
2018-May-17 23:30N 43°39' W 005°31'6 1.5
2018-May-17 19:15N 43°38' W 005°23'1 3.3
2018-May-17 18:57N 43°37' W 005°24'1 3.1
2018-May-17 18:28N 43°38' W 005°26'2 3.2
2018-May-17 17:45N 43°38' W 005°29'1 3.0
2018-May-17 17:27N 43°39' W 005°30'2 3.0
2018-May-17 16:53N 43°40' W 005°32'9 2.9
2018-May-17 13:45N 43°39' W 005°44'2 9.2
2018-May-17 13:29N 43°41' W 005°46'3 5.1
2018-May-17 12:58N 43°43' W 005°48'2 2.7
2018-May-17 12:17N 43°42' W 005°46'1 3.0
2018-May-17 12:00N 43°42' W 005°45'3 3.0
2018-May-17 11:00N 43°41' W 005°41'2 3.0
2018-May-17 10:25N 43°41' W 005°39'2 3.1
2018-May-17 09:44N 43°40' W 005°36'1 4.1
2018-May-17 09:27N 43°39' W 005°34'2 5.4
2018-May-17 09:00N 43°40' W 005°38'1 2.1
2018-May-17 08:20N 43°40' W 005°39'1 3.9
2018-May-17 07:59N 43°41' W 005°41'2 3.8
2018-May-17 07:24N 43°41' W 005°44'2 3.7
2018-May-17 06:54N 43°42' W 005°47'1 3.3
2018-May-17 06:30N 43°43' W 005°48'2 3.8
2018-May-17 05:59N 43°42' W 005°51'2 2.0
2018-May-17 04:54N 43°42' W 005°54'1 2.2
2018-May-17 04:15N 43°43' W 005°52'3 3.3
2018-May-17 03:27N 43°43' W 005°49'1 3.1
2018-May-17 03:00N 43°43' W 005°47'2 3.2
2018-May-17 02:30N 43°42' W 005°45'2 3.3
2018-May-17 01:58N 43°41' W 005°43'2 3.3
2018-May-17 01:28N 43°41' W 005°40'1 1.9
2018-May-17 00:57N 43°41' W 005°39'1 1.8
2018-May-17 00:15N 43°41' W 005°41'7 1.5
2018-May-16 19:26N 43°43' W 005°50'2 3.3
2018-May-16 18:55N 43°43' W 005°48'1 3.2
2018-May-16 18:29N 43°42' W 005°47'2 3.3
2018-May-16 17:55N 43°41' W 005°44'2 3.2
2018-May-16 17:21N 43°41' W 005°42'2 3.8
2018-May-16 16:50N 43°40' W 005°39'1 2.7
2018-May-16 16:29N 43°39' W 005°39'5 9.5
2018-May-16 16:00N 43°35' W 005°40'2 2.5
2018-May-16 15:11N 43°33' W 005°42'11 4.6
2018-May-16 12:49N 43°42' W 005°51'2 3.2
2018-May-16 12:11N 43°42' W 005°48'1 3.3
2018-May-16 11:51N 43°42' W 005°47'2 3.3
2018-May-16 11:16N 43°41' W 005°44'1 3.2
2018-May-16 10:53N 43°41' W 005°43'1 3.2
2018-May-16 10:29N 43°41' W 005°41'2 3.0
2018-May-16 09:42N 43°40' W 005°38'0 1.1
2018-May-16 09:27N 43°40' W 005°38'1 1.5
2018-May-16 09:00N 43°40' W 005°39'2 3.3
2018-May-16 08:26N 43°41' W 005°42'1 3.2
2018-May-16 08:00N 43°41' W 005°43'2 3.1
2018-May-16 07:20N 43°42' W 005°46'1 3.1
2018-May-16 06:59N 43°42' W 005°47'2 3.1
2018-May-16 06:28N 43°42' W 005°49'2 3.3
2018-May-16 05:59N 43°42' W 005°52'2 1.5
2018-May-16 04:50N 43°42' W 005°54'2 3.3
2018-May-16 04:22N 43°43' W 005°52'2 3.4
2018-May-16 03:51N 43°43' W 005°50'1 3.3
2018-May-16 03:30N 43°43' W 005°48'2 3.0
2018-May-16 03:00N 43°42' W 005°46'2 3.2
2018-May-16 02:27N 43°42' W 005°44'2 3.4
2018-May-16 01:59N 43°41' W 005°42'2 3.5
2018-May-16 01:28N 43°41' W 005°40'0 0.7
2018-May-16 01:00N 43°40' W 005°39'1 2.0
2018-May-16 00:24N 43°41' W 005°41'2 3.3
2018-May-15 23:54N 43°41' W 005°43'5 1.2
2018-May-15 19:35N 43°43' W 005°50'1 3.2
2018-May-15 19:11N 43°43' W 005°48'1 3.3
2018-May-15 18:57N 43°42' W 005°47'2 3.3
2018-May-15 18:26N 43°42' W 005°45'2 3.2
2018-May-15 17:56N 43°41' W 005°43'2 3.2
2018-May-15 17:20N 43°41' W 005°41'1 3.1
2018-May-15 17:00N 43°40' W 005°39'4 7.1
2018-May-15 16:29N 43°37' W 005°39'4 7.2
2018-May-15 15:58N 43°33' W 005°42'11 2.8
2018-May-15 12:08N 43°42' W 005°50'2 3.2
2018-May-15 11:27N 43°42' W 005°53'3 7.0
2018-May-15 10:59N 43°41' W 005°57'2 3.7
2018-May-15 10:30N 43°41' W 005°60'12 0.8
2018-May-14 19:46N 43°41' W 005°43'1 3.2
2018-May-14 19:23N 43°41' W 005°41'2 3.5
2018-May-14 18:55N 43°40' W 005°39'4 7.8
2018-May-14 18:26N 43°37' W 005°40'4 8.3
2018-May-14 18:00N 43°33' W 005°42'0 0.0
2018-May-14 17:29N 43°33' W 005°42'3 5.8
2018-May-14 17:00N 43°36' W 005°41'  
Track history (hours):
 
Tides and Currents Weather Stations Pressure Air Temp Water Temp Dewpoint Dewpoint Depression Visibility Wind Speed Wind Dir Waves Ship Positions

Plaia De Rueta

Last reported at 2018-May-24 09:00 UTC. Time now 2018-May-24 14:08 UTC.
Position N 43°33' W 005°42'.

Length 32 m; draft 6 m.

Type: Fishing. MMSI: 224100180.

Date/timePositionNaut miles runAvg speedWind from/ knotsBaromVisibWave heightAir tempDewpointWater temp
2018-May-24 09:00N 43°33' W 005°42'0 0.0
2018-May-24 08:30N 43°33' W 005°42'0 0.0
2018-May-24 08:00N 43°33' W 005°42'0 0.0
2018-May-24 07:30N 43°33' W 005°42'0 0.0
2018-May-24 06:58N 43°33' W 005°42'0 0.0
2018-May-24 06:30N 43°33' W 005°42'0 0.0
2018-May-24 06:00N 43°33' W 005°42'0 0.0
2018-May-24 05:30N 43°33' W 005°42'0 0.0
2018-May-24 05:00N 43°33' W 005°42'0 0.0
2018-May-24 04:29N 43°33' W 005°42'0 0.0
2018-May-24 04:00N 43°33' W 005°42'0 0.0
2018-May-24 03:29N 43°33' W 005°42'0 0.0
2018-May-24 03:00N 43°33' W 005°42'0 0.0
2018-May-24 02:30N 43°33' W 005°42'0 0.0
2018-May-24 02:00N 43°33' W 005°42'0 0.0
2018-May-24 01:30N 43°33' W 005°42'0 0.0
2018-May-24 01:00N 43°33' W 005°42'0 0.0
2018-May-23 20:19N 43°33' W 005°42'0 0.0
2018-May-23 19:57N 43°33' W 005°42'0 0.0
2018-May-23 19:29N 43°33' W 005°42'0 0.0
2018-May-23 19:00N 43°33' W 005°42'0 0.0
2018-May-23 18:30N 43°33' W 005°42'0 0.0
2018-May-23 18:00N 43°33' W 005°42'0 0.0
2018-May-23 17:30N 43°33' W 005°42'0 0.0
2018-May-23 17:00N 43°33' W 005°42'0 0.0
2018-May-23 16:29N 43°33' W 005°42'9 1.6
2018-May-23 10:31N 43°42' W 005°46'0 3.1
2018-May-23 10:30N 43°42' W 005°46'3 3.3
2018-May-23 09:38N 43°41' W 005°42'1 3.3
2018-May-23 09:28N 43°41' W 005°42'1 1.8
2018-May-23 08:59N 43°40' W 005°41'1 1.7
2018-May-23 08:29N 43°41' W 005°42'4 3.5
2018-May-23 07:25N 43°42' W 005°46'3 3.6
2018-May-23 06:43N 43°42' W 005°50'1 3.8
2018-May-23 06:26N 43°42' W 005°51'5 5.7
2018-May-23 05:35N 43°42' W 005°58'2 9.8
2018-May-23 05:25N 43°43' W 006°00'12 0.5
2018-May-22 04:21N 43°55' W 005°56'15 1.9
2018-May-21 20:28N 43°44' W 005°43'2 3.1
2018-May-21 19:58N 43°42' W 005°42'2 3.2
2018-May-21 19:29N 43°41' W 005°41'2 3.5
2018-May-21 18:58N 43°40' W 005°38'2 3.8
2018-May-21 18:23N 43°40' W 005°35'4 8.1
2018-May-21 17:57N 43°37' W 005°38'4 9.6
2018-May-21 17:30N 43°33' W 005°42'0 0.3
2018-May-21 17:00N 43°33' W 005°42'0 0.4
2018-May-21 16:30N 43°33' W 005°41'4 7.3
2018-May-21 16:00N 43°37' W 005°41'4 8.2
2018-May-21 15:27N 43°41' W 005°42'4 0.8
2018-May-21 10:08N 43°42' W 005°48'0 3.3
2018-May-21 09:59N 43°42' W 005°48'2 3.3
2018-May-21 09:26N 43°42' W 005°45'2 3.3
2018-May-21 08:58N 43°41' W 005°43'2 3.3
2018-May-21 08:28N 43°41' W 005°41'2 3.7
2018-May-21 08:00N 43°40' W 005°39'2 5.0
2018-May-21 07:30N 43°41' W 005°42'1 2.1
2018-May-21 06:55N 43°41' W 005°44'2 3.9
2018-May-21 06:20N 43°42' W 005°46'1 3.9
2018-May-21 05:58N 43°43' W 005°48'2 3.9
2018-May-21 05:26N 43°42' W 005°51'1 1.0
2018-May-21 03:58N 43°42' W 005°53'2 3.3
2018-May-21 03:30N 43°42' W 005°51'2 3.1
2018-May-21 02:54N 43°42' W 005°48'1 3.3
2018-May-21 02:30N 43°42' W 005°47'2 3.3
2018-May-21 02:00N 43°41' W 005°45'2 3.3
2018-May-21 01:30N 43°41' W 005°42'2 3.2
2018-May-21 00:54N 43°40' W 005°40'  
2018-May-18 12:44N 43°40' W 005°41'1 2.8
2018-May-18 12:29N 43°41' W 005°41'1 2.0
2018-May-18 11:57N 43°42' W 005°41'2 3.2
2018-May-18 11:27N 43°43' W 005°42'3 2.2
2018-May-18 10:03N 43°46' W 005°44'0 3.0
2018-May-18 09:55N 43°46' W 005°44'1 3.1
2018-May-18 09:27N 43°44' W 005°43'2 3.2
2018-May-18 08:56N 43°43' W 005°42'3 3.6
2018-May-18 08:04N 43°40' W 005°40'0 2.7
2018-May-18 07:57N 43°41' W 005°40'2 3.8
2018-May-18 07:28N 43°41' W 005°43'2 3.6
2018-May-18 06:58N 43°42' W 005°45'2 3.7
2018-May-18 06:28N 43°42' W 005°47'2 3.6
2018-May-18 05:58N 43°43' W 005°50'2 3.3
2018-May-18 05:30N 43°43' W 005°52'1 1.5
2018-May-18 04:40N 43°42' W 005°54'1 3.2
2018-May-18 04:28N 43°43' W 005°53'2 3.3
2018-May-18 03:56N 43°43' W 005°50'1 3.3
2018-May-18 03:30N 43°43' W 005°48'2 3.3
2018-May-18 02:59N 43°42' W 005°46'2 3.2
2018-May-18 02:30N 43°42' W 005°44'2 3.4
2018-May-18 02:00N 43°41' W 005°42'2 3.4
2018-May-18 01:29N 43°41' W 005°40'2 4.0
2018-May-18 00:57N 43°40' W 005°37'2 4.9
2018-May-18 00:30N 43°41' W 005°34'1 1.4
2018-May-18 00:00N 43°40' W 005°33'2 3.1
2018-May-17 23:30N 43°39' W 005°31'6 1.5
2018-May-17 19:15N 43°38' W 005°23'1 3.3
2018-May-17 18:57N 43°37' W 005°24'1 3.1
2018-May-17 18:28N 43°38' W 005°26'2 3.2
2018-May-17 17:45N 43°38' W 005°29'1 3.0
2018-May-17 17:27N 43°39' W 005°30'2 3.0
2018-May-17 16:53N 43°40' W 005°32'9 2.9
2018-May-17 13:45N 43°39' W 005°44'2 9.2
2018-May-17 13:29N 43°41' W 005°46'3 5.1
2018-May-17 12:58N 43°43' W 005°48'2 2.7
2018-May-17 12:17N 43°42' W 005°46'1 3.0
2018-May-17 12:00N 43°42' W 005°45'3 3.0
2018-May-17 11:00N 43°41' W 005°41'2 3.0
2018-May-17 10:25N 43°41' W 005°39'2 3.1
2018-May-17 09:44N 43°40' W 005°36'1 4.1
2018-May-17 09:27N 43°39' W 005°34'2 5.4
2018-May-17 09:00N 43°40' W 005°38'1 2.1
2018-May-17 08:20N 43°40' W 005°39'1 3.9
2018-May-17 07:59N 43°41' W 005°41'2 3.8
2018-May-17 07:24N 43°41' W 005°44'2 3.7
2018-May-17 06:54N 43°42' W 005°47'1 3.3
2018-May-17 06:30N 43°43' W 005°48'2 3.8
2018-May-17 05:59N 43°42' W 005°51'2 2.0
2018-May-17 04:54N 43°42' W 005°54'1 2.2
2018-May-17 04:15N 43°43' W 005°52'3 3.3
2018-May-17 03:27N 43°43' W 005°49'1 3.1
2018-May-17 03:00N 43°43' W 005°47'2 3.2
2018-May-17 02:30N 43°42' W 005°45'2 3.3
2018-May-17 01:58N 43°41' W 005°43'2 3.3
2018-May-17 01:28N 43°41' W 005°40'1 1.9
2018-May-17 00:57N 43°41' W 005°39'1 1.8
2018-May-17 00:15N 43°41' W 005°41'7 1.5
2018-May-16 19:26N 43°43' W 005°50'2 3.3
2018-May-16 18:55N 43°43' W 005°48'1 3.2
2018-May-16 18:29N 43°42' W 005°47'2 3.3
2018-May-16 17:55N 43°41' W 005°44'2 3.2
2018-May-16 17:21N 43°41' W 005°42'2 3.8
2018-May-16 16:50N 43°40' W 005°39'1 2.7
2018-May-16 16:29N 43°39' W 005°39'5 9.5
2018-May-16 16:00N 43°35' W 005°40'2 2.5
2018-May-16 15:11N 43°33' W 005°42'11 4.6
2018-May-16 12:49N 43°42' W 005°51'2 3.2
2018-May-16 12:11N 43°42' W 005°48'1 3.3
2018-May-16 11:51N 43°42' W 005°47'2 3.3
2018-May-16 11:16N 43°41' W 005°44'1 3.2
2018-May-16 10:53N 43°41' W 005°43'1 3.2
2018-May-16 10:29N 43°41' W 005°41'2 3.0
2018-May-16 09:42N 43°40' W 005°38'0 1.1
2018-May-16 09:27N 43°40' W 005°38'1 1.5
2018-May-16 09:00N 43°40' W 005°39'2 3.3
2018-May-16 08:26N 43°41' W 005°42'1 3.2
2018-May-16 08:00N 43°41' W 005°43'2 3.1
2018-May-16 07:20N 43°42' W 005°46'1 3.1
2018-May-16 06:59N 43°42' W 005°47'2 3.1
2018-May-16 06:28N 43°42' W 005°49'2 3.3
2018-May-16 05:59N 43°42' W 005°52'2 1.5
2018-May-16 04:50N 43°42' W 005°54'2 3.3
2018-May-16 04:22N 43°43' W 005°52'2 3.4
2018-May-16 03:51N 43°43' W 005°50'1 3.3
2018-May-16 03:30N 43°43' W 005°48'2 3.0
2018-May-16 03:00N 43°42' W 005°46'2 3.2
2018-May-16 02:27N 43°42' W 005°44'2 3.4
2018-May-16 01:59N 43°41' W 005°42'2 3.5
2018-May-16 01:28N 43°41' W 005°40'0 0.7
2018-May-16 01:00N 43°40' W 005°39'1 2.0
2018-May-16 00:24N 43°41' W 005°41'2 3.3
2018-May-15 23:54N 43°41' W 005°43'5 1.2
2018-May-15 19:35N 43°43' W 005°50'1 3.2
2018-May-15 19:11N 43°43' W 005°48'1 3.3
2018-May-15 18:57N 43°42' W 005°47'2 3.3
2018-May-15 18:26N 43°42' W 005°45'2 3.2
2018-May-15 17:56N 43°41' W 005°43'2 3.2
2018-May-15 17:20N 43°41' W 005°41'1 3.1
2018-May-15 17:00N 43°40' W 005°39'4 7.1
2018-May-15 16:29N 43°37' W 005°39'4 7.2
2018-May-15 15:58N 43°33' W 005°42'11 2.8
2018-May-15 12:08N 43°42' W 005°50'2 3.2
2018-May-15 11:27N 43°42' W 005°53'3 7.0
2018-May-15 10:59N 43°41' W 005°57'2 3.7
2018-May-15 10:30N 43°41' W 005°60'12 0.8
2018-May-14 19:46N 43°41' W 005°43'1 3.2
2018-May-14 19:23N 43°41' W 005°41'2 3.5
2018-May-14 18:55N 43°40' W 005°39'4 7.8
2018-May-14 18:26N 43°37' W 005°40'4 8.3
2018-May-14 18:00N 43°33' W 005°42'0 0.0
2018-May-14 17:29N 43°33' W 005°42'3 5.8
2018-May-14 17:00N 43°36' W 005°41'  

Dump ship's entire track history